ADQ weather

Kodiak Airport
Kodiak, Alaska, United States

Public forecast

Using degrees Fahrenheit for public forecast. Weather courtesy of forecast.io.

METAR (pilot weather report)

Retrieved 2019/05/27 00:53 UTC (32 minutes ago):

PADQ 270053Z 15014KT 10SM BKN022 OVC030 10/07 A2958

TAF (pilot weather forecast)

Forecast is more than 12 hours old.

Retrieved 2019/05/26 00:30 UTC (1 day ago):

TAF PADQ 262328Z 2700/2724 15009KT P6SM VCSH FEW004 BKN020 TEMPO 2700/2702 FEW004 BKN010 FM271200 12007KT 5SM -RA BR SCT008 BKN012